Paradis, Louisiana
Current Conditions -  °F | °C
As of 3:53 AM on Friday 28 Nov 2014 (Local Time) from KMSY Reporting Station
Clear Clear  
Wind Chill: 41°   Ceiling: Unl
Heat Index: 46°   Visibility: 10mi
Dew Point: 36°   Wind: 9mph
Humidity: 68%   Direction: 70°ENE
Pressure: 30.42"   Gusts: NA
Location:  29.88°N, 90.43°W
Report Text: KMSY 280953Z 07008KT 10SM CLR 08/02 A3042 RMK AO2 SLP305 T00780022
Loading
Personal Weather Stations






























Interactive Weather Map New forecast layout! Learn more

10-Day Weather Forecast

Advertisements
Track Severe Weather on mobile